sensor_id;sensor_type;location;lat;lon;timestamp;temperature;humidity
8114;DHT22;4099;52.684;9.918;2022-12-18T00:04:20;-9.60;1.00
8114;DHT22;4099;52.684;9.918;2022-12-18T00:09:23;-9.80;1.00
8114;DHT22;4099;52.684;9.918;2022-12-18T00:14:25;-9.90;1.00
8114;DHT22;4099;52.684;9.918;2022-12-18T00:19:27;-9.80;1.00
8114;DHT22;4099;52.684;9.918;2022-12-18T00:24:30;-9.80;1.00
8114;DHT22;4099;52.684;9.918;2022-12-18T00:29:32;-10.20;1.00
8114;DHT22;4099;52.684;9.918;2022-12-18T00:34:35;-10.70;1.00
8114;DHT22;4099;52.684;9.918;2022-12-18T00:39:38;-10.90;29.60
8114;DHT22;4099;52.684;9.918;2022-12-18T00:44:40;-10.60;99.90
8114;DHT22;4099;52.684;9.918;2022-12-18T00:49:42;-10.20;23.40
8114;DHT22;4099;52.684;9.918;2022-12-18T00:54:45;-10.10;1.00
8114;DHT22;4099;52.684;9.918;2022-12-18T00:59:47;-10.00;1.00
8114;DHT22;4099;52.684;9.918;2022-12-18T01:04:48;-10.20;1.00
8114;DHT22;4099;52.684;9.918;2022-12-18T01:09:55;-10.50;1.00
8114;DHT22;4099;52.684;9.918;2022-12-18T01:14:57;-10.40;1.00
8114;DHT22;4099;52.684;9.918;2022-12-18T01:19:59;-10.40;15.80
8114;DHT22;4099;52.684;9.918;2022-12-18T01:25:03;-10.70;1.00
8114;DHT22;4099;52.684;9.918;2022-12-18T01:30:06;-10.40;1.00
8114;DHT22;4099;52.684;9.918;2022-12-18T01:35:08;-10.30;1.00
8114;DHT22;4099;52.684;9.918;2022-12-18T01:40:12;-10.60;1.00
8114;DHT22;4099;52.684;9.918;2022-12-18T01:45:25;-10.50;1.00
8114;DHT22;4099;52.684;9.918;2022-12-18T01:50:31;-10.10;1.00
8114;DHT22;4099;52.684;9.918;2022-12-18T01:55:38;-10.20;1.00
8114;DHT22;4099;52.684;9.918;2022-12-18T02:00:41;-10.30;1.00
8114;DHT22;4099;52.684;9.918;2022-12-18T02:05:45;-10.90;1.00
8114;DHT22;4099;52.684;9.918;2022-12-18T02:10:57;-11.20;1.00
8114;DHT22;4099;52.684;9.918;2022-12-18T02:16:12;-10.50;1.00
8114;DHT22;4099;52.684;9.918;2022-12-18T02:21:23;-10.70;1.00
8114;DHT22;4099;52.684;9.918;2022-12-18T02:26:34;-11.10;1.00
8114;DHT22;4099;52.684;9.918;2022-12-18T02:31:42;-11.00;1.00
8114;DHT22;4099;52.684;9.918;2022-12-18T02:36:46;-11.40;1.00
8114;DHT22;4099;52.684;9.918;2022-12-18T02:41:51;-10.90;26.70
8114;DHT22;4099;52.684;9.918;2022-12-18T02:46:56;-11.10;1.00
8114;DHT22;4099;52.684;9.918;2022-12-18T02:52:05;-10.90;1.00
8114;DHT22;4099;52.684;9.918;2022-12-18T02:57:16;-10.50;1.00
8114;DHT22;4099;52.684;9.918;2022-12-18T03:02:24;-10.70;1.00
8114;DHT22;4099;52.684;9.918;2022-12-18T03:07:35;-11.20;1.00
8114;DHT22;4099;52.684;9.918;2022-12-18T03:12:45;-11.60;1.80
8114;DHT22;4099;52.684;9.918;2022-12-18T03:17:55;-11.40;39.10
8114;DHT22;4099;52.684;9.918;2022-12-18T03:23:06;-11.00;33.10
8114;DHT22;4099;52.684;9.918;2022-12-18T03:28:14;-11.20;1.00
8114;DHT22;4099;52.684;9.918;2022-12-18T03:33:21;-11.10;27.40
8114;DHT22;4099;52.684;9.918;2022-12-18T03:38:28;-10.80;1.00
8114;DHT22;4099;52.684;9.918;2022-12-18T03:43:43;-10.80;1.00
8114;DHT22;4099;52.684;9.918;2022-12-18T03:48:54;-11.20;1.00
8114;DHT22;4099;52.684;9.918;2022-12-18T03:54:01;-11.20;1.00
8114;DHT22;4099;52.684;9.918;2022-12-18T03:59:10;-11.20;1.00
8114;DHT22;4099;52.684;9.918;2022-12-18T04:04:15;-11.20;1.00
8114;DHT22;4099;52.684;9.918;2022-12-18T04:09:19;-11.30;1.00
8114;DHT22;4099;52.684;9.918;2022-12-18T04:14:24;-11.00;1.00
8114;DHT22;4099;52.684;9.918;2022-12-18T04:19:29;-11.00;1.00
8114;DHT22;4099;52.684;9.918;2022-12-18T04:24:37;-11.20;1.00
8114;DHT22;4099;52.684;9.918;2022-12-18T04:29:50;-11.50;1.00
8114;DHT22;4099;52.684;9.918;2022-12-18T04:34:53;-11.20;1.00
8114;DHT22;4099;52.684;9.918;2022-12-18T04:39:55;-11.00;1.00
8114;DHT22;4099;52.684;9.918;2022-12-18T04:45:08;-10.80;1.00
8114;DHT22;4099;52.684;9.918;2022-12-18T04:50:10;-10.80;1.00
8114;DHT22;4099;52.684;9.918;2022-12-18T04:55:12;-11.10;1.00
8114;DHT22;4099;52.684;9.918;2022-12-18T05:00:15;-11.10;1.00
8114;DHT22;4099;52.684;9.918;2022-12-18T05:05:17;-10.80;1.00
8114;DHT22;4099;52.684;9.918;2022-12-18T05:10:19;-10.80;1.00
8114;DHT22;4099;52.684;9.918;2022-12-18T05:15:22;-11.20;1.00
8114;DHT22;4099;52.684;9.918;2022-12-18T05:20:25;-11.70;1.00
8114;DHT22;4099;52.684;9.918;2022-12-18T05:25:26;-11.80;1.00
8114;DHT22;4099;52.684;9.918;2022-12-18T05:30:30;-11.40;7.40
8114;DHT22;4099;52.684;9.918;2022-12-18T05:35:31;-11.40;1.00
8114;DHT22;4099;52.684;9.918;2022-12-18T05:40:33;-11.20;1.00
8114;DHT22;4099;52.684;9.918;2022-12-18T05:45:38;-10.90;1.00
8114;DHT22;4099;52.684;9.918;2022-12-18T05:50:41;-11.00;1.00
8114;DHT22;4099;52.684;9.918;2022-12-18T05:55:44;-11.30;1.00
8114;DHT22;4099;52.684;9.918;2022-12-18T06:00:48;-11.70;1.00
8114;DHT22;4099;52.684;9.918;2022-12-18T06:05:50;-11.70;45.60
8114;DHT22;4099;52.684;9.918;2022-12-18T06:10:52;-11.50;42.70
8114;DHT22;4099;52.684;9.918;2022-12-18T06:15:55;-11.20;13.40
8114;DHT22;4099;52.684;9.918;2022-12-18T06:20:58;-10.90;1.00
8114;DHT22;4099;52.684;9.918;2022-12-18T06:26:04;-11.20;1.00
8114;DHT22;4099;52.684;9.918;2022-12-18T06:31:08;-11.50;1.00
8114;DHT22;4099;52.684;9.918;2022-12-18T06:36:12;-11.80;1.00
8114;DHT22;4099;52.684;9.918;2022-12-18T06:41:16;-11.70;20.50
8114;DHT22;4099;52.684;9.918;2022-12-18T06:46:19;-11.50;11.40
8114;DHT22;4099;52.684;9.918;2022-12-18T06:51:22;-11.50;1.00
8114;DHT22;4099;52.684;9.918;2022-12-18T06:56:24;-11.40;1.00
8114;DHT22;4099;52.684;9.918;2022-12-18T07:01:27;-11.40;1.00
8114;DHT22;4099;52.684;9.918;2022-12-18T07:06:29;-11.60;1.00
8114;DHT22;4099;52.684;9.918;2022-12-18T07:11:32;-11.70;1.00
8114;DHT22;4099;52.684;9.918;2022-12-18T07:16:36;-11.40;41.40
8114;DHT22;4099;52.684;9.918;2022-12-18T07:21:38;-11.30;1.00
8114;DHT22;4099;52.684;9.918;2022-12-18T07:26:39;-11.40;1.00
8114;DHT22;4099;52.684;9.918;2022-12-18T07:31:43;-11.30;29.30
8114;DHT22;4099;52.684;9.918;2022-12-18T07:36:44;-11.00;2.50
8114;DHT22;4099;52.684;9.918;2022-12-18T07:41:46;-11.10;1.00
8114;DHT22;4099;52.684;9.918;2022-12-18T07:47:09;-11.50;1.00
8114;DHT22;4099;52.684;9.918;2022-12-18T07:52:11;-11.80;1.00
8114;DHT22;4099;52.684;9.918;2022-12-18T07:57:14;-11.80;66.00
8114;DHT22;4099;52.684;9.918;2022-12-18T08:02:17;-11.50;99.90
8114;DHT22;4099;52.684;9.918;2022-12-18T08:07:19;-11.00;33.10
8114;DHT22;4099;52.684;9.918;2022-12-18T08:12:20;-10.90;15.10
8114;DHT22;4099;52.684;9.918;2022-12-18T08:17:24;-11.00;1.00
8114;DHT22;4099;52.684;9.918;2022-12-18T08:22:25;-10.90;23.40
8114;DHT22;4099;52.684;9.918;2022-12-18T08:27:27;-10.80;18.50
8114;DHT22;4099;52.684;9.918;2022-12-18T08:32:30;-10.50;53.40
8114;DHT22;4099;52.684;9.918;2022-12-18T08:37:33;-10.30;99.90
8114;DHT22;4099;52.684;9.918;2022-12-18T08:42:35;-10.10;99.90
8114;DHT22;4099;52.684;9.918;2022-12-18T08:47:55;-9.70;99.90
8114;DHT22;4099;52.684;9.918;2022-12-18T08:52:57;-9.30;99.90
8114;DHT22;4099;52.684;9.918;2022-12-18T08:57:59;-8.90;99.90
8114;DHT22;4099;52.684;9.918;2022-12-18T09:03:02;-8.50;99.90
8114;DHT22;4099;52.684;9.918;2022-12-18T09:08:04;-8.20;99.90
8114;DHT22;4099;52.684;9.918;2022-12-18T09:13:06;-7.80;99.90
8114;DHT22;4099;52.684;9.918;2022-12-18T09:18:09;-7.30;99.90
8114;DHT22;4099;52.684;9.918;2022-12-18T09:23:12;-7.00;99.90
8114;DHT22;4099;52.684;9.918;2022-12-18T09:28:15;-6.70;99.90
8114;DHT22;4099;52.684;9.918;2022-12-18T09:33:19;-6.40;99.90
8114;DHT22;4099;52.684;9.918;2022-12-18T09:38:21;-6.00;99.90
8114;DHT22;4099;52.684;9.918;2022-12-18T09:43:28;-5.80;79.90
8114;DHT22;4099;52.684;9.918;2022-12-18T09:48:35;-5.80;32.40
8114;DHT22;4099;52.684;9.918;2022-12-18T09:53:38;-5.50;96.70
8114;DHT22;4099;52.684;9.918;2022-12-18T09:58:45;-5.20;64.00
8114;DHT22;4099;52.684;9.918;2022-12-18T10:03:51;-4.80;35.60
8114;DHT22;4099;52.684;9.918;2022-12-18T10:08:59;-4.50;2.70
8114;DHT22;4099;52.684;9.918;2022-12-18T10:14:09;-4.40;1.00
8114;DHT22;4099;52.684;9.918;2022-12-18T10:19:29;-4.20;1.00
8114;DHT22;4099;52.684;9.918;2022-12-18T10:24:39;-4.00;1.00
8114;DHT22;4099;52.684;9.918;2022-12-18T10:29:44;-4.10;1.00
8114;DHT22;4099;52.684;9.918;2022-12-18T10:34:49;-4.00;1.00
8114;DHT22;4099;52.684;9.918;2022-12-18T10:40:07;-3.80;1.00
8114;DHT22;4099;52.684;9.918;2022-12-18T10:45:11;-3.60;1.00
8114;DHT22;4099;52.684;9.918;2022-12-18T10:50:25;-3.50;1.00
8114;DHT22;4099;52.684;9.918;2022-12-18T10:55:32;-3.40;1.00
8114;DHT22;4099;52.684;9.918;2022-12-18T11:00:35;-3.40;1.00
8114;DHT22;4099;52.684;9.918;2022-12-18T11:05:39;-3.30;1.00
8114;DHT22;4099;52.684;9.918;2022-12-18T11:10:46;-3.10;1.00
8114;DHT22;4099;52.684;9.918;2022-12-18T11:15:49;-3.10;1.00
8114;DHT22;4099;52.684;9.918;2022-12-18T11:20:55;-3.20;1.00
8114;DHT22;4099;52.684;9.918;2022-12-18T11:25:59;-3.20;1.00
8114;DHT22;4099;52.684;9.918;2022-12-18T11:31:23;-3.30;1.00
8114;DHT22;4099;52.684;9.918;2022-12-18T11:36:29;-3.30;1.00
8114;DHT22;4099;52.684;9.918;2022-12-18T11:41:36;-3.20;1.00
8114;DHT22;4099;52.684;9.918;2022-12-18T11:47:03;-3.00;1.00
8114;DHT22;4099;52.684;9.918;2022-12-18T11:52:13;-2.50;1.00
8114;DHT22;4099;52.684;9.918;2022-12-18T11:57:27;-2.20;1.00
8114;DHT22;4099;52.684;9.918;2022-12-18T12:02:42;-1.80;1.00
8114;DHT22;4099;52.684;9.918;2022-12-18T12:07:57;-1.40;99.90
8114;DHT22;4099;52.684;9.918;2022-12-18T12:13:13;-0.30;84.00
8114;DHT22;4099;52.684;9.918;2022-12-18T12:18:26;0.10;1.00
8114;DHT22;4099;52.684;9.918;2022-12-18T12:23:40;0.20;1.00
8114;DHT22;4099;52.684;9.918;2022-12-18T12:28:59;0.10;1.00
8114;DHT22;4099;52.684;9.918;2022-12-18T12:34:10;0.50;88.30
8114;DHT22;4099;52.684;9.918;2022-12-18T12:39:20;0.20;1.00
8114;DHT22;4099;52.684;9.918;2022-12-18T12:44:25;-0.10;99.90
8114;DHT22;4099;52.684;9.918;2022-12-18T12:49:31;-0.60;1.00
8114;DHT22;4099;52.684;9.918;2022-12-18T12:54:36;-0.90;1.00
8114;DHT22;4099;52.684;9.918;2022-12-18T12:59:46;-1.20;55.30
8114;DHT22;4099;52.684;9.918;2022-12-18T13:04:52;-1.50;1.00
8114;DHT22;4099;52.684;9.918;2022-12-18T13:10:26;-1.90;99.90
8114;DHT22;4099;52.684;9.918;2022-12-18T13:15:34;-2.10;1.00
8114;DHT22;4099;52.684;9.918;2022-12-18T13:20:40;-2.30;1.00
8114;DHT22;4099;52.684;9.918;2022-12-18T13:25:43;-2.40;1.00
8114;DHT22;4099;52.684;9.918;2022-12-18T13:30:48;-2.50;1.00
8114;DHT22;4099;52.684;9.918;2022-12-18T13:36:01;-2.70;1.00
8114;DHT22;4099;52.684;9.918;2022-12-18T13:41:22;-2.80;1.00
8114;DHT22;4099;52.684;9.918;2022-12-18T13:46:27;-3.00;1.00
8114;DHT22;4099;52.684;9.918;2022-12-18T13:51:32;-3.00;1.00
8114;DHT22;4099;52.684;9.918;2022-12-18T13:56:43;-3.10;1.00
8114;DHT22;4099;52.684;9.918;2022-12-18T14:01:48;-3.10;1.00
8114;DHT22;4099;52.684;9.918;2022-12-18T14:06:52;-3.20;1.00
8114;DHT22;4099;52.684;9.918;2022-12-18T14:11:56;-3.30;1.00
8114;DHT22;4099;52.684;9.918;2022-12-18T14:17:13;-3.30;1.00
8114;DHT22;4099;52.684;9.918;2022-12-18T14:22:17;-3.30;1.00
8114;DHT22;4099;52.684;9.918;2022-12-18T14:27:24;-3.50;1.00
8114;DHT22;4099;52.684;9.918;2022-12-18T14:32:26;-3.50;1.00
8114;DHT22;4099;52.684;9.918;2022-12-18T14:37:28;-3.60;1.00
8114;DHT22;4099;52.684;9.918;2022-12-18T14:42:33;-3.80;1.00
8114;DHT22;4099;52.684;9.918;2022-12-18T14:47:34;-3.80;1.00
8114;DHT22;4099;52.684;9.918;2022-12-18T14:52:36;-4.00;20.80
8114;DHT22;4099;52.684;9.918;2022-12-18T14:57:40;-4.10;35.50
8114;DHT22;4099;52.684;9.918;2022-12-18T15:02:45;-4.10;51.80
8114;DHT22;4099;52.684;9.918;2022-12-18T15:07:49;-4.30;99.60
8114;DHT22;4099;52.684;9.918;2022-12-18T15:13:07;-4.20;90.90
8114;DHT22;4099;52.684;9.918;2022-12-18T15:18:13;-4.40;99.90
8114;DHT22;4099;52.684;9.918;2022-12-18T15:23:19;-4.50;99.90
8114;DHT22;4099;52.684;9.918;2022-12-18T15:28:25;-4.60;99.90
8114;DHT22;4099;52.684;9.918;2022-12-18T15:33:31;-4.50;99.90
8114;DHT22;4099;52.684;9.918;2022-12-18T15:38:33;-4.40;99.90
8114;DHT22;4099;52.684;9.918;2022-12-18T15:43:37;-4.30;99.90
8114;DHT22;4099;52.684;9.918;2022-12-18T15:48:41;-4.40;99.90
8114;DHT22;4099;52.684;9.918;2022-12-18T15:53:43;-4.30;99.90
8114;DHT22;4099;52.684;9.918;2022-12-18T15:58:47;-4.30;99.90
8114;DHT22;4099;52.684;9.918;2022-12-18T16:03:49;-4.40;99.90
8114;DHT22;4099;52.684;9.918;2022-12-18T16:08:51;-4.40;99.90
8114;DHT22;4099;52.684;9.918;2022-12-18T16:13:54;-4.40;99.90
8114;DHT22;4099;52.684;9.918;2022-12-18T16:18:56;-4.40;99.90
8114;DHT22;4099;52.684;9.918;2022-12-18T16:23:58;-4.20;99.90
8114;DHT22;4099;52.684;9.918;2022-12-18T16:29:01;-4.20;99.90
8114;DHT22;4099;52.684;9.918;2022-12-18T16:34:13;-4.10;99.90
8114;DHT22;4099;52.684;9.918;2022-12-18T16:39:16;-4.10;99.90
8114;DHT22;4099;52.684;9.918;2022-12-18T16:44:20;-4.10;99.90
8114;DHT22;4099;52.684;9.918;2022-12-18T16:49:22;-4.00;99.90
8114;DHT22;4099;52.684;9.918;2022-12-18T16:54:24;-4.00;99.90
8114;DHT22;4099;52.684;9.918;2022-12-18T16:59:27;-3.90;99.90
8114;DHT22;4099;52.684;9.918;2022-12-18T17:04:29;-4.00;97.90
8114;DHT22;4099;52.684;9.918;2022-12-18T17:09:31;-3.90;93.60
8114;DHT22;4099;52.684;9.918;2022-12-18T17:14:35;-4.00;82.90
8114;DHT22;4099;52.684;9.918;2022-12-18T17:19:37;-4.00;75.50
8114;DHT22;4099;52.684;9.918;2022-12-18T17:24:39;-4.10;84.20
8114;DHT22;4099;52.684;9.918;2022-12-18T17:29:42;-4.10;76.90
8114;DHT22;4099;52.684;9.918;2022-12-18T17:34:44;-4.00;51.50
8114;DHT22;4099;52.684;9.918;2022-12-18T17:39:46;-4.00;37.90
8114;DHT22;4099;52.684;9.918;2022-12-18T17:44:49;-4.00;28.10
8114;DHT22;4099;52.684;9.918;2022-12-18T17:49:51;-4.00;33.70
8114;DHT22;4099;52.684;9.918;2022-12-18T17:54:53;-4.00;26.20
8114;DHT22;4099;52.684;9.918;2022-12-18T17:59:56;-3.90;12.90
8114;DHT22;4099;52.684;9.918;2022-12-18T18:04:58;-3.90;6.20
8114;DHT22;4099;52.684;9.918;2022-12-18T18:10:00;-3.80;3.50
8114;DHT22;4099;52.684;9.918;2022-12-18T18:15:04;-3.80;1.00
8114;DHT22;4099;52.684;9.918;2022-12-18T18:20:06;-3.80;1.00
8114;DHT22;4099;52.684;9.918;2022-12-18T18:25:09;-3.70;1.00
8114;DHT22;4099;52.684;9.918;2022-12-18T18:30:13;-3.80;1.00
8114;DHT22;4099;52.684;9.918;2022-12-18T18:35:15;-3.60;1.00
8114;DHT22;4099;52.684;9.918;2022-12-18T18:40:17;-3.70;1.00
8114;DHT22;4099;52.684;9.918;2022-12-18T18:45:22;-3.70;1.00
8114;DHT22;4099;52.684;9.918;2022-12-18T18:50:24;-3.70;1.00
8114;DHT22;4099;52.684;9.918;2022-12-18T18:55:26;-3.60;1.00
8114;DHT22;4099;52.684;9.918;2022-12-18T19:00:29;-3.60;1.00
8114;DHT22;4099;52.684;9.918;2022-12-18T19:05:31;-3.50;1.00
8114;DHT22;4099;52.684;9.918;2022-12-18T19:10:33;-3.50;1.00
8114;DHT22;4099;52.684;9.918;2022-12-18T19:15:36;-3.50;1.00
8114;DHT22;4099;52.684;9.918;2022-12-18T19:20:38;-3.40;1.00
8114;DHT22;4099;52.684;9.918;2022-12-18T19:25:40;-3.40;1.00
8114;DHT22;4099;52.684;9.918;2022-12-18T19:30:43;-3.30;1.00
8114;DHT22;4099;52.684;9.918;2022-12-18T19:35:46;-3.30;1.00
8114;DHT22;4099;52.684;9.918;2022-12-18T19:40:48;-3.30;1.00
8114;DHT22;4099;52.684;9.918;2022-12-18T19:45:55;-3.20;1.00
8114;DHT22;4099;52.684;9.918;2022-12-18T19:50:56;-3.20;1.00
8114;DHT22;4099;52.684;9.918;2022-12-18T19:56:03;-3.20;1.00
8114;DHT22;4099;52.684;9.918;2022-12-18T20:01:07;-3.20;1.00
8114;DHT22;4099;52.684;9.918;2022-12-18T20:06:11;-3.20;1.00
8114;DHT22;4099;52.684;9.918;2022-12-18T20:11:13;-3.20;1.00
8114;DHT22;4099;52.684;9.918;2022-12-18T20:16:16;-3.10;1.00
8114;DHT22;4099;52.684;9.918;2022-12-18T20:21:18;-3.10;1.00
8114;DHT22;4099;52.684;9.918;2022-12-18T20:26:20;-3.10;1.00
8114;DHT22;4099;52.684;9.918;2022-12-18T20:31:23;-3.10;1.00
8114;DHT22;4099;52.684;9.918;2022-12-18T20:36:25;-3.00;1.00
8114;DHT22;4099;52.684;9.918;2022-12-18T20:41:27;-3.00;1.00
8114;DHT22;4099;52.684;9.918;2022-12-18T20:46:31;-2.90;1.00
8114;DHT22;4099;52.684;9.918;2022-12-18T20:51:32;-2.90;1.00
8114;DHT22;4099;52.684;9.918;2022-12-18T20:56:34;-2.90;1.00
8114;DHT22;4099;52.684;9.918;2022-12-18T21:01:38;-2.80;1.00
8114;DHT22;4099;52.684;9.918;2022-12-18T21:06:41;-2.90;1.00
8114;DHT22;4099;52.684;9.918;2022-12-18T21:11:43;-2.80;1.00
8114;DHT22;4099;52.684;9.918;2022-12-18T21:17:03;-2.80;1.00
8114;DHT22;4099;52.684;9.918;2022-12-18T21:22:05;-2.70;1.00
8114;DHT22;4099;52.684;9.918;2022-12-18T21:27:07;-2.80;1.00
8114;DHT22;4099;52.684;9.918;2022-12-18T21:32:10;-2.70;1.00
8114;DHT22;4099;52.684;9.918;2022-12-18T21:37:13;-2.70;1.00
8114;DHT22;4099;52.684;9.918;2022-12-18T21:42:15;-2.70;1.00
8114;DHT22;4099;52.684;9.918;2022-12-18T21:47:36;-2.70;1.00
8114;DHT22;4099;52.684;9.918;2022-12-18T21:52:38;-2.70;1.00
8114;DHT22;4099;52.684;9.918;2022-12-18T21:57:40;-2.70;1.00
8114;DHT22;4099;52.684;9.918;2022-12-18T22:02:43;-2.70;1.00
8114;DHT22;4099;52.684;9.918;2022-12-18T22:07:45;-2.70;1.00
8114;DHT22;4099;52.684;9.918;2022-12-18T22:12:47;-2.60;1.00
8114;DHT22;4099;52.684;9.918;2022-12-18T22:17:50;-2.70;1.00
8114;DHT22;4099;52.684;9.918;2022-12-18T22:22:52;-2.70;1.00
8114;DHT22;4099;52.684;9.918;2022-12-18T22:27:53;-2.60;1.00
8114;DHT22;4099;52.684;9.918;2022-12-18T22:33:14;-2.70;1.00
8114;DHT22;4099;52.684;9.918;2022-12-18T22:38:16;-2.50;1.00
8114;DHT22;4099;52.684;9.918;2022-12-18T22:43:18;-2.50;1.00
8114;DHT22;4099;52.684;9.918;2022-12-18T22:48:22;-2.50;1.00
8114;DHT22;4099;52.684;9.918;2022-12-18T22:53:23;-2.40;1.00
8114;DHT22;4099;52.684;9.918;2022-12-18T22:58:25;-2.50;1.00
8114;DHT22;4099;52.684;9.918;2022-12-18T23:03:30;-2.50;1.00
8114;DHT22;4099;52.684;9.918;2022-12-18T23:08:32;-2.40;1.00
8114;DHT22;4099;52.684;9.918;2022-12-18T23:13:34;-2.50;1.00
8114;DHT22;4099;52.684;9.918;2022-12-18T23:18:38;-2.40;1.00
8114;DHT22;4099;52.684;9.918;2022-12-18T23:23:40;-2.40;1.00
8114;DHT22;4099;52.684;9.918;2022-12-18T23:28:42;-2.40;1.00
8114;DHT22;4099;52.684;9.918;2022-12-18T23:33:47;-2.30;1.00
8114;DHT22;4099;52.684;9.918;2022-12-18T23:38:50;-2.30;1.00
8114;DHT22;4099;52.684;9.918;2022-12-18T23:43:53;-2.30;1.00
8114;DHT22;4099;52.684;9.918;2022-12-18T23:48:58;-2.30;1.00
8114;DHT22;4099;52.684;9.918;2022-12-18T23:54:00;-2.30;1.00
8114;DHT22;4099;52.684;9.918;2022-12-18T23:59:02;-2.20;1.00
